createdAt,value
2023-07-31T00:02:05.543Z,17.25
2023-07-31T00:04:32.110Z,17.28
2023-07-31T00:06:58.669Z,17.25
2023-07-31T00:09:26.547Z,17.24
2023-07-31T00:11:53.101Z,17.25
2023-07-31T00:14:19.660Z,17.25
2023-07-31T00:16:46.234Z,17.24
2023-07-31T00:19:12.856Z,17.25
2023-07-31T00:21:39.448Z,17.26
2023-07-31T00:24:06.172Z,17.24
2023-07-31T00:26:34.049Z,17.25
2023-07-31T00:29:00.592Z,17.27
2023-07-31T00:31:27.188Z,17.27
2023-07-31T00:33:53.779Z,17.26
2023-07-31T00:36:20.348Z,17.24
2023-07-31T00:38:46.901Z,17.23
2023-07-31T00:41:13.480Z,17.22
2023-07-31T00:43:41.393Z,17.26
2023-07-31T00:46:08.329Z,17.23
2023-07-31T00:48:36.071Z,17.25
2023-07-31T00:51:02.678Z,17.20
2023-07-31T00:53:29.278Z,17.21
2023-07-31T00:55:55.913Z,17.19
2023-07-31T00:58:22.514Z,17.20
2023-07-31T01:00:50.475Z,17.15
2023-07-31T01:03:17.429Z,17.19
2023-07-31T01:05:51.480Z,17.19
2023-07-31T01:08:25.303Z,17.18
2023-07-31T01:10:56.899Z,17.21
2023-07-31T01:13:24.225Z,17.19
2023-07-31T01:15:52.122Z,17.17
2023-07-31T01:18:18.666Z,17.13
2023-07-31T01:20:55.194Z,17.13
2023-07-31T01:23:36.437Z,17.12
2023-07-31T01:26:10.478Z,17.09
2023-07-31T01:28:47.913Z,17.08
2023-07-31T01:31:19.184Z,17.09
2023-07-31T01:33:47.016Z,17.06
2023-07-31T01:36:13.937Z,17.05
2023-07-31T01:38:40.523Z,17.03
2023-07-31T01:41:08.443Z,17.03
2023-07-31T01:43:35.028Z,17.03
2023-07-31T01:46:01.623Z,17.02
2023-07-31T01:48:28.173Z,17.01
2023-07-31T01:50:54.735Z,16.99
2023-07-31T01:53:21.290Z,16.98
2023-07-31T01:55:47.832Z,16.98
2023-07-31T01:58:15.859Z,16.97
2023-07-31T02:00:42.456Z,16.96
2023-07-31T02:03:09.115Z,16.94
2023-07-31T02:05:35.951Z,16.94
2023-07-31T02:08:04.032Z,16.94
2023-07-31T02:10:32.063Z,16.93
2023-07-31T02:12:58.592Z,16.93
2023-07-31T02:15:26.472Z,16.92
2023-07-31T02:17:53.066Z,16.93
2023-07-31T02:20:19.631Z,16.96
2023-07-31T02:22:46.196Z,16.94
2023-07-31T02:25:12.858Z,16.97
2023-07-31T02:27:39.377Z,16.95
2023-07-31T02:30:06.979Z,16.95
2023-07-31T02:32:34.909Z,16.98
2023-07-31T02:35:01.669Z,16.96
2023-07-31T02:37:28.246Z,16.99
2023-07-31T02:39:54.759Z,16.97
2023-07-31T02:42:21.301Z,16.99
2023-07-31T02:44:47.834Z,16.99
2023-07-31T02:47:14.378Z,16.99
2023-07-31T02:49:42.440Z,17.01
2023-07-31T02:52:08.993Z,17.00
2023-07-31T02:54:35.589Z,17.01
2023-07-31T02:57:02.122Z,17.00
2023-07-31T02:59:29.386Z,17.01
2023-07-31T03:01:55.979Z,17.03
2023-07-31T03:04:22.581Z,17.05
2023-07-31T03:06:50.525Z,17.06
2023-07-31T03:09:17.190Z,17.07
2023-07-31T03:11:43.736Z,17.07
2023-07-31T03:14:10.305Z,17.09
2023-07-31T03:16:36.998Z,17.10
2023-07-31T03:19:03.897Z,17.12
2023-07-31T03:21:30.502Z,17.12
2023-07-31T03:23:58.382Z,17.12
2023-07-31T03:26:24.943Z,17.14
2023-07-31T03:28:51.746Z,17.14
2023-07-31T03:31:18.382Z,17.12
2023-07-31T03:33:44.903Z,17.13
2023-07-31T03:36:11.572Z,17.12
2023-07-31T03:38:38.161Z,17.14
2023-07-31T03:41:06.138Z,17.14
2023-07-31T03:43:32.758Z,17.14
2023-07-31T03:45:59.337Z,17.14
2023-07-31T03:48:25.950Z,17.17
2023-07-31T03:50:52.719Z,17.16
2023-07-31T03:53:19.234Z,17.17
2023-07-31T03:55:45.777Z,17.19
2023-07-31T03:58:13.714Z,17.20
2023-07-31T04:00:41.369Z,17.21
2023-07-31T04:03:08.106Z,17.22
2023-07-31T04:05:38.739Z,17.22
2023-07-31T04:08:05.419Z,17.21
2023-07-31T04:10:31.968Z,17.20
2023-07-31T04:12:58.473Z,17.22
2023-07-31T04:15:26.399Z,17.24
2023-07-31T04:17:53.100Z,17.24
2023-07-31T04:20:19.780Z,17.26
2023-07-31T04:22:46.338Z,17.26
2023-07-31T04:25:12.944Z,17.26
2023-07-31T04:27:40.575Z,17.31
2023-07-31T04:30:08.253Z,17.30
2023-07-31T04:32:36.112Z,17.30
2023-07-31T04:35:02.725Z,17.29
2023-07-31T04:37:29.313Z,17.31
2023-07-31T04:39:55.870Z,17.29
2023-07-31T04:42:22.484Z,17.30
2023-07-31T04:44:49.021Z,17.31
2023-07-31T04:47:15.695Z,17.32
2023-07-31T04:49:43.590Z,17.33
2023-07-31T04:52:10.253Z,17.34
2023-07-31T04:54:36.830Z,17.35
2023-07-31T04:57:03.700Z,17.34
2023-07-31T04:59:30.328Z,17.34
2023-07-31T05:01:56.951Z,17.37
2023-07-31T05:04:23.616Z,17.37
2023-07-31T05:06:51.483Z,17.35
2023-07-31T05:09:18.028Z,17.36
2023-07-31T05:11:44.601Z,17.36
2023-07-31T05:14:11.188Z,17.35
2023-07-31T05:16:38.201Z,17.30
2023-07-31T05:19:05.086Z,17.31
2023-07-31T05:21:31.659Z,17.29
2023-07-31T05:23:59.970Z,17.27
2023-07-31T05:26:26.574Z,17.27
2023-07-31T05:28:53.085Z,17.26
2023-07-31T05:31:19.613Z,17.26
2023-07-31T05:33:46.477Z,17.26
2023-07-31T05:36:12.998Z,17.26
2023-07-31T05:38:41.048Z,17.26
2023-07-31T05:41:12.190Z,17.24
2023-07-31T05:43:38.735Z,17.27
2023-07-31T05:46:06.767Z,17.27
2023-07-31T05:48:33.861Z,17.28
2023-07-31T05:51:00.459Z,17.27
2023-07-31T05:53:27.061Z,17.26
2023-07-31T05:55:53.586Z,17.28
2023-07-31T05:58:22.189Z,17.27
2023-07-31T06:00:48.742Z,17.29
2023-07-31T06:03:15.577Z,17.29
2023-07-31T06:05:42.150Z,17.27
2023-07-31T06:08:08.705Z,17.26
2023-07-31T06:10:35.248Z,17.27
2023-07-31T06:13:01.779Z,17.26
2023-07-31T06:15:29.666Z,17.27
2023-07-31T06:17:56.350Z,17.25
2023-07-31T06:20:23.197Z,17.25
2023-07-31T06:22:49.896Z,17.22
2023-07-31T06:25:16.475Z,17.23
2023-07-31T06:27:43.060Z,17.20
2023-07-31T06:30:10.187Z,17.17
2023-07-31T06:32:38.057Z,17.18
2023-07-31T06:35:05.364Z,17.13
2023-07-31T06:37:31.977Z,17.14
2023-07-31T06:39:58.522Z,17.10
2023-07-31T06:42:25.170Z,17.10
2023-07-31T06:44:51.715Z,17.12
2023-07-31T06:47:18.250Z,17.13
2023-07-31T06:49:46.151Z,17.08
2023-07-31T06:52:12.704Z,17.10
2023-07-31T06:54:39.252Z,17.10
2023-07-31T06:57:06.029Z,17.11
2023-07-31T06:59:32.566Z,17.14
2023-07-31T07:01:59.095Z,17.16
2023-07-31T07:04:25.668Z,17.15
2023-07-31T07:06:53.535Z,17.17
2023-07-31T07:09:20.077Z,17.17
2023-07-31T07:11:46.625Z,17.18
2023-07-31T07:14:13.198Z,17.27
2023-07-31T07:16:40.096Z,17.24
2023-07-31T07:19:06.822Z,17.26
2023-07-31T07:21:33.447Z,17.28
2023-07-31T07:24:01.300Z,17.31
2023-07-31T07:26:27.889Z,17.33
2023-07-31T07:28:54.417Z,17.36
2023-07-31T07:31:21.026Z,17.37
2023-07-31T07:33:47.746Z,17.39
2023-07-31T07:36:14.288Z,17.47
2023-07-31T07:38:40.830Z,17.51
2023-07-31T07:41:08.824Z,17.51
2023-07-31T07:43:35.395Z,17.48
2023-07-31T07:46:02.012Z,17.48
2023-07-31T07:48:28.675Z,17.41
2023-07-31T07:50:55.194Z,17.41
2023-07-31T07:53:21.721Z,17.45
2023-07-31T07:55:48.319Z,17.51
2023-07-31T07:58:16.200Z,17.50
2023-07-31T08:00:42.815Z,17.50
2023-07-31T08:03:09.472Z,17.47
2023-07-31T08:05:36.087Z,17.45
2023-07-31T08:08:02.635Z,17.47
2023-07-31T08:10:29.198Z,17.44
2023-07-31T08:12:55.742Z,17.43
2023-07-31T08:15:23.617Z,17.43
2023-07-31T08:17:50.235Z,17.48
2023-07-31T08:20:16.776Z,17.53
2023-07-31T08:22:43.348Z,17.56
2023-07-31T08:25:09.914Z,17.56
2023-07-31T08:27:36.500Z,17.56
2023-07-31T08:30:03.398Z,17.55
2023-07-31T08:32:31.404Z,17.62
2023-07-31T08:34:57.984Z,17.66
2023-07-31T08:37:24.536Z,17.68
2023-07-31T08:39:51.193Z,17.72
2023-07-31T08:42:17.781Z,17.74
2023-07-31T08:44:44.769Z,17.75
2023-07-31T08:47:11.880Z,17.74
2023-07-31T08:49:41.794Z,17.73
2023-07-31T08:52:08.526Z,17.74
2023-07-31T08:54:35.073Z,17.71
2023-07-31T08:57:01.881Z,17.70
2023-07-31T08:59:31.626Z,17.68
2023-07-31T09:02:04.544Z,17.64
2023-07-31T09:04:32.161Z,17.64
2023-07-31T09:07:02.121Z,17.66
2023-07-31T09:09:28.774Z,17.68
2023-07-31T09:11:56.707Z,17.71
2023-07-31T09:14:25.448Z,17.71
2023-07-31T09:16:56.053Z,17.81
2023-07-31T09:19:30.947Z,17.81
2023-07-31T09:21:57.829Z,17.84
2023-07-31T09:24:29.770Z,17.89
2023-07-31T09:26:56.929Z,17.92
2023-07-31T09:29:24.036Z,17.98
2023-07-31T09:31:51.681Z,18.02
2023-07-31T09:34:18.300Z,18.08
2023-07-31T09:36:46.721Z,18.15
2023-07-31T09:39:14.285Z,18.18
2023-07-31T09:41:43.822Z,18.18
2023-07-31T09:44:10.415Z,18.24
2023-07-31T09:46:37.436Z,18.29
2023-07-31T09:49:08.981Z,18.33
2023-07-31T09:51:35.826Z,18.39
2023-07-31T09:54:02.348Z,18.45
2023-07-31T09:56:28.925Z,18.50
2023-07-31T09:58:57.333Z,18.56
2023-07-31T10:01:23.940Z,18.60
2023-07-31T10:03:51.043Z,18.63
2023-07-31T10:06:18.522Z,18.68
2023-07-31T10:08:48.637Z,18.71
2023-07-31T10:11:16.664Z,18.70
2023-07-31T10:13:43.977Z,18.72
2023-07-31T10:16:13.252Z,18.73
2023-07-31T10:18:41.243Z,18.71
2023-07-31T10:21:08.418Z,18.69
2023-07-31T10:23:35.057Z,18.69
2023-07-31T10:26:03.349Z,18.66
2023-07-31T10:28:30.856Z,18.67
2023-07-31T10:30:57.585Z,18.69
2023-07-31T10:33:26.203Z,18.71
2023-07-31T10:36:13.430Z,18.78
2023-07-31T10:38:40.032Z,18.87
2023-07-31T10:41:09.525Z,18.97
2023-07-31T10:43:37.707Z,19.06
2023-07-31T10:46:07.915Z,19.13
2023-07-31T10:48:36.090Z,19.14
2023-07-31T10:51:08.364Z,19.13
2023-07-31T10:53:34.937Z,19.12
2023-07-31T10:56:02.263Z,19.10
2023-07-31T10:58:28.978Z,19.13
2023-07-31T11:00:57.530Z,19.17
2023-07-31T11:03:27.242Z,19.24
2023-07-31T11:06:01.528Z,19.32
2023-07-31T11:08:30.087Z,19.35
2023-07-31T11:11:07.477Z,19.35
2023-07-31T11:13:40.231Z,19.36
2023-07-31T11:16:06.895Z,19.38
2023-07-31T11:18:33.582Z,19.43
2023-07-31T11:21:01.504Z,19.46
2023-07-31T11:23:28.059Z,19.46
2023-07-31T11:26:00.504Z,19.48
2023-07-31T11:28:27.130Z,19.49
2023-07-31T11:30:56.892Z,19.47
2023-07-31T11:33:23.533Z,19.43
2023-07-31T11:35:50.221Z,19.37
2023-07-31T11:38:23.981Z,19.35
2023-07-31T11:40:50.991Z,19.31
2023-07-31T11:43:19.578Z,19.28
2023-07-31T11:45:48.654Z,19.24
2023-07-31T11:48:20.384Z,19.22
2023-07-31T11:50:47.002Z,19.23
2023-07-31T11:53:14.636Z,19.24
2023-07-31T11:55:43.005Z,19.24
2023-07-31T11:58:10.386Z,19.26
2023-07-31T12:00:37.178Z,19.31
2023-07-31T12:03:04.104Z,19.34
2023-07-31T12:05:31.157Z,19.37
2023-07-31T12:07:57.670Z,19.43
2023-07-31T12:10:28.889Z,19.47
2023-07-31T12:13:01.810Z,19.49
2023-07-31T12:15:38.518Z,19.49
2023-07-31T12:18:06.807Z,19.57
2023-07-31T12:20:33.803Z,19.54
2023-07-31T12:23:00.461Z,19.54
2023-07-31T12:25:33.620Z,19.56
2023-07-31T12:28:07.360Z,19.57
2023-07-31T12:30:35.067Z,19.60
2023-07-31T12:33:04.743Z,19.60
2023-07-31T12:35:36.379Z,19.63
2023-07-31T12:38:03.038Z,19.62
2023-07-31T12:40:33.206Z,19.62
2023-07-31T12:43:02.564Z,19.62
2023-07-31T12:45:30.955Z,19.63
2023-07-31T12:47:57.851Z,19.62
2023-07-31T12:50:24.490Z,19.61
2023-07-31T12:52:52.158Z,19.62
2023-07-31T12:55:18.685Z,19.66
2023-07-31T12:57:45.452Z,19.68
2023-07-31T13:00:13.625Z,19.74
2023-07-31T13:02:41.678Z,19.78
2023-07-31T13:05:08.576Z,19.84
2023-07-31T13:07:35.331Z,19.85
2023-07-31T13:10:01.921Z,19.84
2023-07-31T13:12:28.467Z,19.84
2023-07-31T13:14:55.076Z,19.83
2023-07-31T13:17:21.651Z,19.84
2023-07-31T13:19:49.540Z,19.83
2023-07-31T13:22:16.162Z,19.80
2023-07-31T13:24:42.705Z,19.79
2023-07-31T13:27:09.294Z,19.76
2023-07-31T13:29:35.823Z,19.73
2023-07-31T13:32:02.451Z,19.71
2023-07-31T13:34:29.013Z,19.70
2023-07-31T13:36:56.945Z,19.68
2023-07-31T13:39:23.502Z,19.70
2023-07-31T13:41:50.058Z,19.73
2023-07-31T13:44:16.621Z,19.76
2023-07-31T13:46:43.348Z,19.80
2023-07-31T13:49:10.341Z,19.86
2023-07-31T13:51:36.932Z,19.92
2023-07-31T13:54:05.152Z,19.98
2023-07-31T13:56:31.677Z,19.99
2023-07-31T13:58:58.240Z,19.97
2023-07-31T14:01:24.827Z,19.94
2023-07-31T14:03:51.482Z,19.93
2023-07-31T14:06:18.077Z,19.95
2023-07-31T14:08:44.637Z,19.96
2023-07-31T14:11:12.525Z,19.91
2023-07-31T14:13:39.124Z,19.85
2023-07-31T14:16:05.762Z,19.82
2023-07-31T14:18:32.606Z,19.80
2023-07-31T14:20:59.490Z,19.73
2023-07-31T14:23:26.068Z,19.69
2023-07-31T14:25:52.643Z,19.63
2023-07-31T14:28:20.577Z,19.59
2023-07-31T14:30:47.356Z,19.58
2023-07-31T14:33:13.936Z,19.58
2023-07-31T14:35:40.464Z,19.61
2023-07-31T14:38:06.989Z,19.63
2023-07-31T14:40:33.537Z,19.65
2023-07-31T14:43:00.068Z,19.65
2023-07-31T14:45:28.058Z,19.64
2023-07-31T14:47:54.680Z,19.62
2023-07-31T14:50:21.464Z,19.59
2023-07-31T14:52:48.352Z,19.52
2023-07-31T14:55:15.195Z,19.43
2023-07-31T14:57:41.758Z,19.37
2023-07-31T15:00:09.465Z,19.26
2023-07-31T15:02:37.984Z,19.23
2023-07-31T15:05:05.829Z,19.17
2023-07-31T15:07:33.078Z,19.16
2023-07-31T15:09:59.661Z,19.13
2023-07-31T15:12:27.533Z,19.09
2023-07-31T15:14:54.502Z,19.02
2023-07-31T15:17:21.209Z,19.01
2023-07-31T15:19:49.111Z,19.03
2023-07-31T15:22:15.750Z,19.01
2023-07-31T15:24:42.342Z,19.02
2023-07-31T15:27:08.985Z,19.04
2023-07-31T15:29:35.717Z,19.01
2023-07-31T15:32:02.655Z,19.05
2023-07-31T15:34:29.936Z,19.00
2023-07-31T15:36:58.012Z,19.01
2023-07-31T15:39:24.622Z,18.99
2023-07-31T15:41:51.237Z,18.99
2023-07-31T15:44:17.844Z,18.99
2023-07-31T15:46:44.390Z,18.97
2023-07-31T15:49:11.356Z,18.97
2023-07-31T15:51:37.970Z,18.94
2023-07-31T15:54:05.894Z,18.91
2023-07-31T15:56:32.488Z,18.86
2023-07-31T15:58:59.051Z,18.86
2023-07-31T16:01:25.721Z,18.81
2023-07-31T16:03:52.447Z,18.74
2023-07-31T16:06:19.063Z,18.72
2023-07-31T16:08:45.654Z,18.71
2023-07-31T16:11:13.568Z,18.72
2023-07-31T16:13:40.114Z,18.67
2023-07-31T16:16:06.715Z,18.65
2023-07-31T16:18:33.277Z,18.60
2023-07-31T16:20:59.884Z,18.57
2023-07-31T16:23:26.464Z,18.56
2023-07-31T16:25:53.028Z,18.53
2023-07-31T16:28:20.984Z,18.58
2023-07-31T16:30:47.686Z,18.52
2023-07-31T16:33:14.334Z,18.49
2023-07-31T16:35:40.935Z,18.49
2023-07-31T16:38:07.523Z,18.50
2023-07-31T16:40:34.096Z,18.47
2023-07-31T16:43:00.618Z,18.41
2023-07-31T16:45:28.522Z,18.41
2023-07-31T16:47:55.115Z,18.40
2023-07-31T16:50:24.087Z,18.39
2023-07-31T16:52:50.960Z,18.35
2023-07-31T16:55:17.494Z,18.34
2023-07-31T16:57:44.038Z,18.34
2023-07-31T17:00:11.884Z,18.30
2023-07-31T17:02:40.154Z,18.33
2023-07-31T17:05:08.268Z,18.26
2023-07-31T17:07:34.802Z,18.26
2023-07-31T17:10:01.315Z,18.32
2023-07-31T17:12:27.921Z,18.29
2023-07-31T17:14:54.459Z,18.23
2023-07-31T17:17:21.032Z,18.24
2023-07-31T17:19:49.063Z,18.29
2023-07-31T17:22:15.698Z,18.19
2023-07-31T17:24:42.387Z,18.18
2023-07-31T17:27:08.929Z,18.19
2023-07-31T17:29:35.534Z,18.19
2023-07-31T17:32:02.133Z,18.19
2023-07-31T17:34:28.686Z,18.27
2023-07-31T17:36:56.650Z,18.27
2023-07-31T17:39:23.236Z,18.23
2023-07-31T17:41:49.824Z,18.19
2023-07-31T17:44:16.388Z,18.21
2023-07-31T17:46:43.246Z,18.17
2023-07-31T17:49:09.967Z,18.16
2023-07-31T17:51:36.510Z,18.17
2023-07-31T17:54:04.361Z,18.17
2023-07-31T17:56:30.918Z,18.19
2023-07-31T17:58:57.505Z,18.21
2023-07-31T18:01:24.131Z,18.21
2023-07-31T18:03:50.781Z,18.15
2023-07-31T18:06:17.415Z,18.18
2023-07-31T18:08:43.984Z,18.14
2023-07-31T18:11:11.855Z,18.14
2023-07-31T18:13:38.412Z,18.12
2023-07-31T18:16:05.601Z,18.12
2023-07-31T18:18:32.529Z,18.13
2023-07-31T18:20:59.103Z,18.10
2023-07-31T18:23:25.709Z,18.12
2023-07-31T18:25:52.308Z,18.10
2023-07-31T18:28:20.230Z,18.10
2023-07-31T18:30:47.047Z,18.09
2023-07-31T18:33:13.671Z,18.10
2023-07-31T18:35:40.238Z,18.14
2023-07-31T18:38:06.853Z,18.08
2023-07-31T18:40:34.552Z,18.13
2023-07-31T18:43:01.181Z,18.12
2023-07-31T18:45:29.057Z,18.10
2023-07-31T18:47:55.629Z,18.10
2023-07-31T18:50:22.234Z,18.05
2023-07-31T18:52:48.899Z,18.07
2023-07-31T18:55:15.626Z,18.10
2023-07-31T18:57:42.192Z,18.08
2023-07-31T19:00:09.898Z,18.10
2023-07-31T19:02:37.874Z,18.08
2023-07-31T19:05:05.078Z,18.08
2023-07-31T19:07:31.654Z,18.08
2023-07-31T19:10:08.769Z,18.08
2023-07-31T19:12:40.644Z,18.08
2023-07-31T19:15:07.943Z,18.09
2023-07-31T19:17:34.498Z,18.10
2023-07-31T19:20:02.399Z,18.10
2023-07-31T19:22:28.917Z,18.13
2023-07-31T19:24:55.429Z,18.13
2023-07-31T19:27:22.073Z,18.12
2023-07-31T19:29:48.658Z,18.10
2023-07-31T19:32:15.209Z,18.14
2023-07-31T19:34:41.890Z,18.12
2023-07-31T19:37:10.804Z,18.13
2023-07-31T19:39:38.468Z,18.14
2023-07-31T19:42:05.570Z,18.13
2023-07-31T19:44:32.125Z,18.12
2023-07-31T19:46:58.651Z,18.13
2023-07-31T19:49:26.489Z,18.12
2023-07-31T19:51:53.019Z,18.13
2023-07-31T19:54:20.878Z,18.13
2023-07-31T19:56:47.448Z,18.12
2023-07-31T19:59:13.991Z,18.13
2023-07-31T20:01:40.591Z,18.11
2023-07-31T20:04:07.254Z,18.13
2023-07-31T20:06:33.820Z,18.11
2023-07-31T20:09:00.337Z,18.12
2023-07-31T20:11:28.201Z,18.09
2023-07-31T20:13:54.721Z,18.11
2023-07-31T20:16:21.270Z,18.13
2023-07-31T20:18:47.846Z,18.16
2023-07-31T20:21:14.409Z,18.08
2023-07-31T20:23:43.528Z,18.33
2023-07-31T20:26:10.768Z,18.12
2023-07-31T20:28:38.721Z,17.92
2023-07-31T20:31:05.509Z,17.73
2023-07-31T20:33:32.245Z,17.64
2023-07-31T20:35:58.813Z,17.85
2023-07-31T20:38:25.355Z,17.65
2023-07-31T20:40:51.939Z,17.58
2023-07-31T20:43:18.493Z,17.51
2023-07-31T20:45:46.561Z,17.51
2023-07-31T20:48:13.227Z,17.57
2023-07-31T20:50:39.814Z,17.55
2023-07-31T20:53:06.352Z,17.47
2023-07-31T20:55:33.081Z,17.47
2023-07-31T20:57:59.622Z,17.48
2023-07-31T21:00:26.185Z,17.50
2023-07-31T21:02:54.138Z,17.53
2023-07-31T21:05:20.755Z,17.55
2023-07-31T21:07:47.310Z,17.55
2023-07-31T21:10:13.918Z,17.57
2023-07-31T21:12:40.514Z,17.57
2023-07-31T21:15:08.602Z,17.52
2023-07-31T21:17:35.205Z,17.48
2023-07-31T21:20:04.020Z,17.52
2023-07-31T21:22:31.378Z,17.49
2023-07-31T21:24:58.003Z,17.41
2023-07-31T21:27:24.573Z,17.42
2023-07-31T21:29:51.102Z,17.45
2023-07-31T21:32:17.639Z,17.31
2023-07-31T21:34:44.225Z,17.32
2023-07-31T21:37:12.203Z,17.35
2023-07-31T21:39:38.961Z,17.41
2023-07-31T21:42:06.145Z,17.45
2023-07-31T21:44:32.713Z,17.41
2023-07-31T21:46:59.386Z,17.32
2023-07-31T21:49:26.057Z,17.32
2023-07-31T21:51:52.602Z,17.33
2023-07-31T21:54:20.509Z,17.37
2023-07-31T21:56:47.071Z,17.44
2023-07-31T21:59:13.802Z,17.44
2023-07-31T22:01:40.331Z,17.41
2023-07-31T22:04:06.880Z,17.41
2023-07-31T22:06:33.434Z,17.44
2023-07-31T22:08:59.942Z,17.47
2023-07-31T22:11:27.837Z,17.54
2023-07-31T22:13:54.358Z,17.49
2023-07-31T22:16:20.983Z,17.54
2023-07-31T22:18:47.530Z,17.49
2023-07-31T22:21:14.045Z,17.40
2023-07-31T22:23:40.625Z,17.44
2023-07-31T22:26:07.197Z,17.36
2023-07-31T22:28:35.100Z,17.33
2023-07-31T22:31:01.742Z,17.44
2023-07-31T22:33:28.270Z,17.32
2023-07-31T22:35:54.809Z,17.30
2023-07-31T22:38:21.398Z,17.31
2023-07-31T22:40:47.908Z,17.31
2023-07-31T22:43:14.437Z,17.35
2023-07-31T22:45:46.600Z,17.39
2023-07-31T22:48:13.259Z,17.41
2023-07-31T22:50:39.863Z,17.41
2023-07-31T22:53:06.816Z,17.43
2023-07-31T22:55:33.364Z,17.44
2023-07-31T22:57:59.888Z,17.44
2023-07-31T23:00:26.478Z,17.47
2023-07-31T23:02:54.401Z,17.50
2023-07-31T23:05:21.043Z,17.52
2023-07-31T23:07:47.626Z,17.53
2023-07-31T23:10:14.155Z,17.54
2023-07-31T23:12:40.738Z,17.56
2023-07-31T23:15:08.467Z,17.57
2023-07-31T23:17:35.261Z,17.58
2023-07-31T23:20:03.499Z,17.59
2023-07-31T23:22:31.063Z,17.61
2023-07-31T23:24:57.673Z,17.61
2023-07-31T23:27:24.265Z,17.61
2023-07-31T23:29:50.848Z,17.60
2023-07-31T23:32:17.445Z,17.59
2023-07-31T23:34:44.071Z,17.59
2023-07-31T23:37:11.966Z,17.58
2023-07-31T23:39:38.508Z,17.56
2023-07-31T23:42:05.516Z,17.57
2023-07-31T23:44:32.205Z,17.56
2023-07-31T23:46:58.769Z,17.55
2023-07-31T23:49:25.280Z,17.57
2023-07-31T23:51:51.872Z,17.57
2023-07-31T23:54:19.921Z,17.56
2023-07-31T23:56:46.487Z,17.55
2023-07-31T23:59:13.070Z,17.57
